Etusivu
METAR-TAF:

METAR-TAF

Lentoasemat :

Arvidsjaur, Ruotsi

Leveyspiiri: 65-35-25N, Pituuspiiri: 019-16-55E, korkeus merenpinnasta: 379 m

Tämänhetkinen sää

Tämä raportti tehtiin 37 minuuttia sitten, kello 14.50 UTC
Tuuli 17 kn lännestä
Lämpötila 14°C
Kosteus 44%
Ilmanpaine 999 hPa
Näkyvyys 10 km tai enemmän

METAR: ESNX 201450Z AUTO 27017KT 9999 NCD 14/02 Q0999

Aika: 17:27 (15:27 UTC)

Sääennuste

Tämä raportti tehtiin 10 tuntia ja 57 minuuttia sitten, kello 04.30 UTC
Ennuste voimassa 20. päivästä klo 05 UTC - 20. päivään klo 08 UTC
Tuuli 15 kn lännestä puuskistuen 25 kn:hen
Näkyvyys 10 km tai enemmän
ei pilviä alle 1500 m:ssä eikä cumulonimbus-pilviä

TAF: ESNX 200430Z 2005/2008 27015G25KT CAVOK

Säähavainnot ja -ennusteet yli 4000 lentoasemalta (METAR- ja TAF-raportit).

Käytössä olevat sääasemat on merkitty karttaan keltaisilla ja punaisilla pisteillä.

Aseta hiiri pisteen päälle nähdäksesi sääaseman nimen.

Klikkaa sitten nähdäksesi säähavainnot ja -ennusteet.

Kartan vaihtaminen: klikkaa mustalla rastilla varustettuja vihreitä pisteitä, niin voit zoomata sisään; viivalla varustettua vihreää pistettä, niin voit zoomata ulos tai vihreitä nuolia, niin pääset viereisille kartoille.


METAR-TAF: